Flight Track Log - Related Links

Times and Time Zones

All times are in EDT time to prevent confusion due to time zone crossing. See the ZK-PBG flight status page for this flight to view local times or setup timezone preferences in your user account.

Time Position Orientation Groundspeed Altitude Reporting Facility
EDT Latitude Longitude Course Direction KTS MPH feet Rate Location/Type
Sun 01:19:49 AM -27.4788 153.1400 162° South 233 268 4,000  Level Aus ATC (RADAR)
Sun 01:20:12 AM -27.5010 153.1480 176° South 240 276 5,300 2,377 Climbing FlightAware ADS-B
Sun 01:20:42 AM -27.5340 153.1410 191° South 263 303 6,100 1,091 Climbing FlightAware ADS-B
Sun 01:21:07 AM -27.5650 153.1310 196° South 269 310 6,300 1,636 Climbing FlightAware ADS-B
Sun 01:21:37 AM -27.5990 153.1270 186° South 277 319 7,600 2,933 Climbing FlightAware ADS-B
Sun 01:21:52 AM -27.6160 153.1360 155° Southeast 284 327 8,500 3,600 Climbing FlightAware ADS-B
Sun 01:22:02 AM -27.6280 153.1500 134° Southeast 287 330 9,100 3,360 Climbing FlightAware ADS-B
Sun 01:22:17 AM -27.6360 153.1670 118° Southeast 292 336 9,900 2,300 Climbing FlightAware ADS-B
Sun 01:23:02 AM -27.6620 153.2370 113° Southeast 340 391 11,400 2,328 Climbing FlightAware ADS-B
Sun 01:23:24 AM -27.6769 153.2781 113° Southeast 340 391 12,500 3,000 Climbing Aus ATC (RADAR)
Sun 01:23:42 AM -27.6870 153.3040 113° Southeast 351 404 13,400 2,286 Climbing FlightAware ADS-B
Sun 01:24:27 AM -27.7150 153.3810 112° Southeast 387 445 14,900 1,672 Climbing FlightAware ADS-B
Sun 01:24:43 AM -27.7295 153.4205 112° Southeast 386 444 15,100 1,350 Climbing Aus ATC (RADAR)
Sun 01:25:07 AM -27.7440 153.4610 112° Southeast 421 484 15,800 2,156 Climbing FlightAware ADS-B
Sun 01:25:47 AM -27.7750 153.5450 113° Southeast 434 499 17,400 2,118 Climbing FlightAware ADS-B
Sun 01:26:32 AM -27.8110 153.6410 113° Southeast 452 520 18,800 1,906 Climbing FlightAware ADS-B
Sun 01:27:12 AM -27.8420 153.7280 112° Southeast 465 535 20,100 2,057 Climbing FlightAware ADS-B
Sun 01:27:42 AM -27.8760 153.7970 119° Southeast 471 542 21,200 1,971 Climbing FlightAware ADS-B
Sun 01:28:22 AM -27.9460 153.8540 144° Southeast 475 547 22,400 1,869 Climbing FlightAware ADS-B
Sun 01:28:43 AM -27.9891 153.8839 144° Southeast 474 545 23,100 2,400 Climbing Aus ATC (RADAR)
Sun 01:29:17 AM -28.0480 153.9230 144° Southeast 469 540 24,600 3,164 Climbing FlightAware ADS-B
Sun 01:29:38 AM -28.0916 153.9539 144° Southeast 464 534 26,000 3,167 Climbing Aus ATC (RADAR)
Sun 01:29:53 AM -28.1188 153.9723 149° Southeast 458 527 26,500 1,895 Climbing Aus ATC (RADAR)
Sun 01:29:57 AM -28.1210 153.9730 149° Southeast 455 524 26,600 2,400 Climbing FlightAware ADS-B
Sun 01:30:28 AM -28.1810 154.0150 149° Southeast 448 516 27,900 1,867 Climbing Aus ATC (RADAR)
Sun 01:30:42 AM -28.1980 154.0260 149° Southeast 460 529 28,000 556 Climbing FlightAware ADS-B
Sun 01:31:22 AM -28.2770 154.0800 149° Southeast 484 557 28,400 857 Climbing FlightAware ADS-B
Sun 01:31:38 AM -28.3123 154.1053 149° Southeast 478 550 28,800 1,333 Climbing Aus ATC (RADAR)
Sun 01:32:07 AM -28.3600 154.1380 149° Southeast 494 568 29,400 1,304 Climbing FlightAware ADS-B
Sun 01:32:47 AM -28.4370 154.1910 149° Southeast 499 574 30,300 1,607 Climbing FlightAware ADS-B
Sun 01:33:03 AM -28.4789 154.2205 149° Southeast 495 570 30,900 1,733 Climbing Aus ATC (RADAR)
Sun 01:33:32 AM -28.5290 154.2550 149° Southeast 501 577 31,600 1,469 Climbing FlightAware ADS-B
Sun 01:33:52 AM -28.5775 154.2894 149° Southeast 496 571 32,100 1,500 Climbing Aus ATC (RADAR)
Sun 01:34:12 AM -28.6100 154.3110 149° Southeast 502 578 32,600 1,560 Climbing FlightAware ADS-B
Sun 01:34:42 AM -28.6771 154.3579 149° Southeast 499 574 33,400 1,500 Climbing Aus ATC (RADAR)
Sun 01:34:52 AM -28.6910 154.3670 149° Southeast 503 579 33,600 1,200 Climbing FlightAware ADS-B
Sun 01:35:17 AM -28.7463 154.4064 149° Southeast 497 572 34,100 1,200 Climbing Aus ATC (RADAR)
Sun 01:35:37 AM -28.7770 154.4270 149° Southeast 504 580 34,500 1,300 Climbing FlightAware ADS-B
Sun 01:36:17 AM -28.8590 154.4840 149° Southeast 506 582 35,400 1,385 Climbing FlightAware ADS-B
Sun 01:36:42 AM -28.9154 154.5246 149° Southeast 498 573 36,000 1,333 Climbing Aus ATC (RADAR)
Sun 01:37:02 AM -28.9480 154.5470 149° Southeast 502 578 36,400 1,200 Climbing FlightAware ADS-B
Sun 01:37:37 AM -29.0140 154.5930 149° Southeast 497 572 37,100 1,091 Climbing FlightAware ADS-B
Sun 01:37:57 AM -29.0635 154.6275 149° Southeast 491 565 37,400 800 Climbing Aus ATC (RADAR)
Sun 01:38:22 AM -29.0970 154.6510 149° Southeast 501 577 37,700 686 Climbing FlightAware ADS-B
Sun 01:39:07 AM -29.1950 154.7200 148° Southeast 507 583 38,200 635 Climbing FlightAware ADS-B
Sun 01:39:47 AM -29.2760 154.7770 148° Southeast 511 588 38,600 600 Climbing FlightAware ADS-B
Sun 01:40:07 AM -29.3220 154.8089 148° Southeast 503 579 38,800 533 Climbing Aus ATC (RADAR)
Sun 01:40:32 AM -29.3650 154.8400 148° Southeast 513 590 39,000 185 Climbing FlightAware ADS-B
Sun 01:41:12 AM -29.4470 154.8970 149° Southeast 515 593 39,000  Level FlightAware ADS-B
Sun 01:41:46 AM -29.5243 154.9520 149° Southeast 504 580 39,000  Level Aus ATC (RADAR)
Sun 01:41:47 AM -29.5190 154.9490 149° Southeast 515 593 39,000  Level FlightAware ADS-B
Sun 01:42:37 AM -29.6190 155.0190 149° Southeast 517 595 39,000  Level FlightAware ADS-B
Sun 01:43:06 AM -29.6869 155.0674 149° Southeast 505 581 39,000  Level Aus ATC (RADAR)
Sun 01:43:17 AM -29.6970 155.0750 149° Southeast 517 595 39,000  Level FlightAware ADS-B
Sun 01:44:02 AM -29.7930 155.1440 148° Southeast 517 595 39,000  Level FlightAware ADS-B
Sun 01:44:21 AM -29.8395 155.1760 148° Southeast 507 583 39,000  Level Aus ATC (RADAR)
Sun 01:44:32 AM -29.8490 155.1840 148° Southeast 516 594 39,000  Level FlightAware ADS-B
Sun 01:44:36 AM -29.8699 155.1976 148° Southeast 506 582 39,000  Level Aus ATC (RADAR)
Sun 01:45:11 AM -29.9410 155.2485 148° Southeast 507 583 39,000  Level Aus ATC (RADAR)
Sun 01:45:17 AM -29.9320 155.2440 148° Southeast 516 594 39,000  Level FlightAware ADS-B
Sun 01:46:07 AM -30.0180 155.3060 148° Southeast 516 594 39,000  Level FlightAware ADS-B
Sun 01:46:41 AM -30.1227 155.3793 148° Southeast 504 580 39,000  Level Aus ATC (RADAR)
Sun 01:47:02 AM -30.1500 155.4000 148° Southeast 515 593 39,000  Level FlightAware ADS-B
Sun 01:47:41 AM -30.2438 155.4668 148° Southeast 503 579 39,000  Level Aus ATC (RADAR)
Sun 01:47:42 AM -30.2180 155.4490 148° Southeast 515 593 39,000  Level FlightAware ADS-B
Sun 01:48:16 AM -30.3143 155.5183 148° Southeast 503 579 39,000  Level Aus ATC (RADAR)
Sun 01:48:22 AM -30.2870 155.4990 148° Southeast 515 593 39,000  Level FlightAware ADS-B
Sun 01:49:02 AM -30.3560 155.5490 148° Southeast 515 593 39,000  Level FlightAware ADS-B
Sun 01:49:46 AM -30.4952 155.6494 148° Southeast 501 577 39,000  Level Aus ATC (RADAR)
Sun 01:49:52 AM -30.4420 155.6110 148° Southeast 515 593 39,000  Level FlightAware ADS-B
Sun 01:50:32 AM -30.5100 155.6610 148° Southeast 515 593 39,000  Level FlightAware ADS-B
Sun 01:51:12 AM -30.5790 155.7110 148° Southeast 515 593 39,000  Level FlightAware ADS-B
Sun 01:51:40 AM -30.7251 155.8174 148° Southeast 499 574 39,000  Level Aus ATC (RADAR)
Sun 01:51:52 AM -30.6480 155.7610 148° Southeast 515 593 39,000  Level FlightAware ADS-B
Sun 01:52:15 AM -30.7942 155.8704 148° Southeast 499 574 39,000  Level Aus ATC (RADAR)
Sun 01:52:32 AM -30.7170 155.8110 148° Southeast 515 593 39,000  Level FlightAware ADS-B
Sun 01:53:10 AM -30.9044 155.9504 148° Southeast 499 574 39,000  Level Aus ATC (RADAR)
Sun 01:53:12 AM -30.7850 155.8610 148° Southeast 515 593 39,000  Level FlightAware ADS-B
Sun 01:54:02 AM -30.8710 155.9230 148° Southeast 515 593 39,000  Level FlightAware ADS-B
Sun 01:54:42 AM -30.9400 155.9730 148° Southeast 515 593 39,000  Level FlightAware ADS-B
Sun 01:55:22 AM -31.0090 156.0230 148° Southeast 515 593 39,000  Level FlightAware ADS-B
Sun 01:55:25 AM -31.1745 156.1503 148° Southeast 499 574 39,000  Level Aus ATC (RADAR)
Sun 01:56:02 AM -31.0770 156.0730 148° Southeast 515 593 39,000 -71 Level FlightAware ADS-B
Sun 01:56:50 AM -31.3432 156.2809 148° Southeast 500 575 38,900  Descending Aus ATC (RADAR)
Sun 01:57:47 AM -31.4540 156.3520 148° Southeast 512 589 39,000  Climbing FlightAware ADS-B
Sun 01:58:05 AM -31.4986 156.3844 148° Southeast 499 574 38,900  Descending Aus ATC (RADAR)
Sun 01:58:27 AM -31.5240 156.4060 148° Southeast 511 588 39,000  Climbing FlightAware ADS-B
Sun 01:59:00 AM -31.6061 156.4658 148° Southeast 496 571 38,900  Descending Aus ATC (RADAR)
Sun 01:59:02 AM -31.5970 156.4580 148° Southeast 509 586 39,000 128 Climbing FlightAware ADS-B
Sun 01:59:47 AM -31.6770 156.5200 147° Southeast 509 586 39,000  Level FlightAware ADS-B
Sun 02:00:42 AM -31.7870 156.6010 148° Southeast 508 585 39,000  Level FlightAware ADS-B
Sun 02:01:32 AM -31.8990 156.6850 148° Southeast 508 585 39,000  Level FlightAware ADS-B
Sun 02:02:07 AM -31.9710 156.7380 148° Southeast 508 585 39,000  Level FlightAware ADS-B
Sun 02:02:52 AM -32.0510 156.7990 147° Southeast 508 585 39,000  Level FlightAware ADS-B
Sun 02:03:52 AM -32.1710 156.8890 148° Southeast 508 585 39,000  Level FlightAware ADS-B
Sun 02:04:00 AM -32.2109 156.9197 148° Southeast 39,000  Level Aus ATC (Calculated)
Sun 02:04:27 AM -32.2460 156.9460 147° Southeast 508 585 39,000  Level FlightAware ADS-B
Sun 02:05:12 AM -32.3250 157.0070 147° Southeast 508 585 39,000  Level FlightAware ADS-B
Sun 02:05:52 AM -32.3920 157.0580 147° Southeast 508 585 39,000  Level FlightAware ADS-B
Sun 02:06:10 AM -32.4835 157.1267 330° Northwest 39,000  Level Aus ATC (Calculated)
Sun 02:06:32 AM -32.4590 157.1100 147° Southeast 508 585 39,000  Level FlightAware ADS-B
Sun 02:07:22 AM -32.5430 157.1750 147° Southeast 508 585 39,000  Level FlightAware ADS-B
Sun 02:08:02 AM -32.6100 157.2260 147° Southeast 508 585 39,000  Level FlightAware ADS-B
Sun 02:08:42 AM -32.6770 157.2780 147° Southeast 508 585 39,000  Level FlightAware ADS-B
Sun 02:08:59 AM -32.8124 157.3785 329° Northwest 39,000  Level Aus ATC (Calculated)
Sun 02:09:22 AM -32.7440 157.3300 147° Southeast 508 585 39,000  Level FlightAware ADS-B
Sun 02:10:02 AM -32.8110 157.3810 147° Southeast 508 585 39,000  Level FlightAware ADS-B
Sun 02:10:52 AM -32.8950 157.4460 147° Southeast 508 585 39,000  Level FlightAware ADS-B
Sun 02:11:32 AM -32.9620 157.4980 147° Southeast 508 585 39,000  Level FlightAware ADS-B
Sun 02:12:12 AM -33.0290 157.5500 147° Southeast 508 585 39,000  Level FlightAware ADS-B
Sun 02:12:25 AM -33.2433 157.7118 328° Northwest 39,000  Level Aus ATC (Calculated)
Sun 02:12:52 AM -33.0960 157.6020 147° Southeast 508 585 39,000  Level FlightAware ADS-B
Sun 02:12:54 AM -33.3016 157.7572 328° Northwest 39,000  Level Aus ATC (Calculated)
Sun 02:13:32 AM -33.1630 157.6540 147° Southeast 508 585 39,000  Level FlightAware ADS-B
Sun 02:13:58 AM -33.4145 157.8453 328° Northwest 39,000  Level Aus ATC (Calculated)
Sun 02:14:22 AM -33.2460 157.7190 147° Southeast 508 585 39,000 11 Level FlightAware ADS-B
Sun 02:15:10 AM -33.5731 157.9696 147° Southeast 39,000 11 Level Aus ATC (Calculated)
Sun 02:16:54 AM -33.7646 158.1204 147° Southeast 39,000 11 Level Aus ATC (Calculated)
Sun 02:17:00 AM -33.7633 158.1193 147° Southeast  Level FlightAware Approximate
Sun 02:17:13 AM -33.8065 158.1535 147° Southeast 39,000  Level Aus ATC (Calculated)
Sun 02:17:13 AM -33.8065 158.1535 147° Southeast 39,000 11 Level Aus ATC (Calculated)
Sun 02:18:00 AM -33.8786 158.2105 147° Southeast  Level FlightAware Approximate
Sun 02:19:00 AM -33.9912 158.2999 147° Southeast  Level FlightAware Approximate
Sun 02:20:00 AM -34.0948 158.3823 147° Southeast  Level FlightAware Approximate
Sun 02:21:00 AM -34.1983 158.4649 147° Southeast  Level FlightAware Approximate
Sun 02:22:00 AM -34.3018 158.5477 147° Southeast  Level FlightAware Approximate
Sun 02:22:07 AM -34.3733 158.6051 146° Southeast 39,000  Level Aus ATC (Calculated)
Sun 02:24:00 AM -34.5679 158.7619 146° Southeast  Level FlightAware Approximate
Sun 02:24:22 AM -34.6460 158.8250 146° Southeast 39,000  Level Aus ATC (Calculated)
Sun 02:25:02 AM -34.7028 158.8710 146° Southeast 39,000 12 Level Aus ATC (Calculated)
Sun 02:26:29 AM -34.9013 159.0325 146° Southeast 39,000 12 Level Aus ATC (Calculated)
Sun 02:28:00 AM -35.0575 159.1603 146° Southeast  Level FlightAware Approximate
Sun 02:28:02 AM -35.1160 159.2084 146° Southeast 39,000  Level Aus ATC (Calculated)
Sun 02:29:00 AM -35.2523 159.3206 146° Southeast 39,000 12 Level Aus ATC (Calculated)
Sun 02:30:00 AM -35.1494 159.2358 326° Northwest  Level FlightAware Approximate
Sun 02:31:00 AM -35.0465 159.1512 326° Northwest  Level FlightAware Approximate
Sun 02:32:00 AM -35.1494 159.2358 146° Southeast  Level FlightAware Approximate
Sun 02:32:13 AM -35.5820 159.5939 146° Southeast 39,000  Level Aus ATC (Calculated)
Sun 02:32:13 AM -35.5820 159.5939 146° Southeast 39,000 13 Level Aus ATC (Calculated)
Sun 02:34:00 AM -35.7643 159.7482 146° Southeast  Level Estimated
Sun 02:35:00 AM -35.8668 159.8342 146° Southeast  Level FlightAware Approximate
Sun 02:36:00 AM -35.9693 159.9204 146° Southeast  Level FlightAware Approximate
Sun 02:37:00 AM -36.0717 160.0069 146° Southeast  Level FlightAware Approximate
Sun 02:38:00 AM -36.1741 160.0936 146° Southeast  Level FlightAware Approximate
Sun 02:39:00 AM -36.2764 160.1805 146° Southeast  Level FlightAware Approximate
Sun 02:40:00 AM -36.3786 160.2677 146° Southeast  Level FlightAware Approximate
Sun 02:41:00 AM -36.4808 160.3550 145° Southeast  Level FlightAware Approximate
Sun 02:42:00 AM -36.5829 160.4427 145° Southeast  Level FlightAware Approximate
Sun 02:43:00 AM -36.6855 160.5294 146° Southeast  Level FlightAware Approximate
Sun 02:44:00 AM -36.7875 160.6176 145° Southeast  Level FlightAware Approximate
Sun 02:45:00 AM -36.8894 160.7059 145° Southeast  Level FlightAware Approximate
Sun 02:46:00 AM -36.9912 160.7945 145° Southeast  Level FlightAware Approximate
Sun 02:47:00 AM -37.0930 160.8833 145° Southeast  Level FlightAware Approximate
Sun 02:48:00 AM -37.1947 160.9724 145° Southeast  Level FlightAware Approximate
Sun 02:48:19 AM -37.3935 161.1474 145° Southeast 39,000  Level Aus ATC (Calculated)
Sun 02:49:33 AM -37.5190 161.2584 145° Southeast 39,000 17 Level Aus ATC (Calculated)
Sun 02:50:14 AM -37.5788 161.3115 145° Southeast 39,000 17 Level Aus ATC (Calculated)
Sun 02:50:37 AM -37.5788 161.3115 145° Southeast 39,000 17 Level Aus ATC (Calculated)
Sun 02:51:00 AM -37.6367 161.3630 145° Southeast 39,000 17 Level Aus ATC (Calculated)
Sun 02:51:57 AM -37.7488 161.4630 145° Southeast 39,000 17 Level Aus ATC (Calculated)
Sun 02:52:00 AM -37.7380 161.4534 145° Southeast  Level FlightAware Approximate
Sun 02:53:00 AM -37.8551 161.5582 145° Southeast  Level FlightAware Approximate
Sun 02:54:00 AM -37.9563 161.6490 145° Southeast  Level FlightAware Approximate
Sun 02:55:00 AM -38.0574 161.7402 145° Southeast  Level FlightAware Approximate
Sun 02:56:00 AM -38.1585 161.8316 145° Southeast  Level FlightAware Approximate
Sun 02:57:00 AM -38.2595 161.9232 145° Southeast  Level FlightAware Approximate
Sun 02:58:00 AM -38.3604 162.0151 144° Southeast  Level FlightAware Approximate
Sun 02:59:00 AM -38.4612 162.1073 144° Southeast  Level FlightAware Approximate
Sun 03:00:00 AM -38.5620 162.1997 144° Southeast  Level FlightAware Approximate
Sun 03:01:00 AM -38.6627 162.2924 144° Southeast  Level FlightAware Approximate
Sun 03:01:00 AM -38.8477 162.4636 144° Southeast 39,000  Level Aus ATC (Calculated)
Sun 03:01:00 AM -38.8477 162.4636 144° Southeast 39,000 21 Level Aus ATC (Calculated)
Sun 03:02:00 AM -38.9482 162.5570 144° Southeast  Level FlightAware Approximate
Sun 03:03:00 AM -39.0486 162.6507 144° Southeast  Level FlightAware Approximate
Sun 03:04:00 AM -39.1489 162.7447 144° Southeast  Level FlightAware Approximate
Sun 03:05:00 AM -39.2491 162.8389 144° Southeast  Level FlightAware Approximate
Sun 03:06:00 AM -39.3493 162.9334 144° Southeast  Level FlightAware Approximate
Sun 03:07:00 AM -39.4457 163.0347 144° Southeast  Level Estimated
Sun 03:08:00 AM -39.5458 163.1296 144° Southeast  Level FlightAware Approximate
Sun 03:09:00 AM -39.6458 163.2248 144° Southeast  Level FlightAware Approximate
Sun 03:10:00 AM -39.7457 163.3203 144° Southeast  Level FlightAware Approximate
Sun 03:11:00 AM -39.8456 163.4160 144° Southeast  Level FlightAware Approximate
Sun 03:12:00 AM -39.9453 163.5121 144° Southeast  Level FlightAware Approximate
Sun 03:13:00 AM -40.0450 163.6084 144° Southeast  Level FlightAware Approximate
Sun 03:14:00 AM -40.1446 163.7050 143° Southeast  Level FlightAware Approximate
Sun 03:15:00 AM -40.2441 163.8018 143° Southeast  Level FlightAware Approximate
Sun 03:16:00 AM -40.3436 163.8990 143° Southeast  Level FlightAware Approximate
Sun 03:17:00 AM -40.4430 163.9964 143° Southeast  Level FlightAware Approximate
Sun 03:18:00 AM -40.5423 164.0942 143° Southeast  Level FlightAware Approximate
Sun 03:19:00 AM -40.6414 164.1922 143° Southeast  Level FlightAware Approximate
Sun 03:20:00 AM -40.7406 164.2905 143° Southeast  Level FlightAware Approximate
Sun 03:21:00 AM -40.8396 164.3891 143° Southeast  Level FlightAware Approximate
Sun 03:22:00 AM -40.9385 164.4881 143° Southeast  Level FlightAware Approximate
Sun 03:23:00 AM -41.0374 164.5872 143° Southeast  Level FlightAware Approximate
Sun 03:24:00 AM -41.1362 164.6868 143° Southeast  Level FlightAware Approximate
Sun 03:25:00 AM -41.2349 164.7865 143° Southeast  Level FlightAware Approximate
Sun 03:26:00 AM -41.3335 164.8866 143° Southeast  Level FlightAware Approximate
Sun 03:27:00 AM -41.4320 164.9871 143° Southeast  Level FlightAware Approximate
Sun 03:28:00 AM -41.5304 165.0878 143° Southeast  Level FlightAware Approximate
Sun 03:29:00 AM -41.6288 165.1888 142° Southeast  Level FlightAware Approximate
Sun 03:30:00 AM -41.7271 165.2901 142° Southeast  Level FlightAware Approximate
Sun 03:31:00 AM -41.8252 165.3918 142° Southeast  Level FlightAware Approximate
Sun 03:32:00 AM -41.9233 165.4937 142° Southeast  Level FlightAware Approximate
Sun 03:33:00 AM -42.0213 165.5960 142° Southeast  Level FlightAware Approximate
Sun 03:34:00 AM -42.1192 165.6985 142° Southeast  Level FlightAware Approximate
Sun 03:35:00 AM -42.2170 165.8014 142° Southeast  Level FlightAware Approximate
Sun 03:36:00 AM -42.3147 165.9046 142° Southeast  Level FlightAware Approximate
Sun 03:37:00 AM -42.4123 166.0082 142° Southeast  Level FlightAware Approximate
Sun 03:38:00 AM -42.5099 166.1120 142° Southeast  Level FlightAware Approximate
Sun 03:39:00 AM -42.6073 166.2162 142° Southeast  Level FlightAware Approximate
Sun 03:40:00 AM -42.7046 166.3207 142° Southeast  Level FlightAware Approximate
Sun 03:41:00 AM -42.8019 166.4256 142° Southeast  Level FlightAware Approximate
Sun 03:42:00 AM -42.8990 166.5307 142° Southeast  Level FlightAware Approximate
Sun 03:43:00 AM -42.9961 166.6362 142° Southeast  Level FlightAware Approximate
Sun 03:44:00 AM -43.0930 166.7421 141° Southeast  Level FlightAware Approximate
Sun 03:45:00 AM -43.1899 166.8482 141° Southeast  Level FlightAware Approximate
Sun 03:46:00 AM -43.2866 166.9547 141° Southeast  Level FlightAware Approximate
Sun 03:47:00 AM -43.3833 167.0616 141° Southeast  Level FlightAware Approximate
Sun 03:48:00 AM -43.4799 167.1688 141° Southeast  Level FlightAware Approximate
Sun 03:48:13 AM -44.1470 167.8990 141° Southeast 518 596 40,000  Level FlightAware ADS-B
Sun 03:48:48 AM -44.2070 167.9620 143° Southeast 518 596 40,000 -947 Level FlightAware ADS-B
Sun 03:49:48 AM -44.3250 168.0840 144° Southeast 505 581 38,500 -2,149 Descending FlightAware ADS-B
Sun 03:52:00 AM -44.5269 168.3411 138° Southeast  Level FlightAware Approximate
Sun 03:52:23 AM -44.6080 168.3810 138° Southeast 467 537 32,300  Level FlightAware ADS-B
Sun 03:53:03 AM -44.6730 168.4490 143° Southeast 458 527 30,200 -2,753 Descending FlightAware ADS-B
Sun 03:53:48 AM -44.7520 168.5340 143° Southeast 446 513 28,400 -2,250 Descending FlightAware ADS-B
Sun 03:54:23 AM -44.8090 168.5950 143° Southeast 439 505 27,200 -1,800 Descending FlightAware ADS-B
Sun 03:55:08 AM -44.8740 168.6650 143° Southeast 434 499 26,000 -800 Descending FlightAware ADS-B
Sun 03:55:53 AM -44.9400 168.7380 142° Southeast 434 499 26,000 -800 Level FlightAware ADS-B
Sun 03:56:53 AM -45.0460 168.8480 144° Southeast 437 503 24,600 -1,357 Descending FlightAware ADS-B
Sun 03:57:48 AM -45.1280 168.9380 142° Southeast 426 490 23,400 -758 Descending FlightAware ADS-B
Sun 03:58:28 AM -45.1810 168.9960 142° Southeast 426 490 23,400  Level FlightAware ADS-B
Sun 03:59:08 AM -45.2340 169.0550 142° Southeast 426 490 23,400  Level FlightAware ADS-B
Sun 03:59:48 AM -45.2860 169.1130 142° Southeast 426 490 23,400  Level FlightAware ADS-B
Sun 04:00:28 AM -45.3390 169.1720 142° Southeast 426 490 23,400 -5,400 Level FlightAware ADS-B
Sun 04:01:18 AM -45.4500 169.2840 145° Southeast 371 427 15,300 -6,200 Descending FlightAware ADS-B
Sun 04:01:58 AM -45.5030 169.3420 143° Southeast 363 418 14,100 -1,835 Descending FlightAware ADS-B
Sun 04:02:43 AM -45.5630 169.4070 143° Southeast 365 420 12,700 -1,906 Descending FlightAware ADS-B
Sun 04:03:23 AM -45.6160 169.4650 143° Southeast 341 392 11,400 -1,800 Descending FlightAware ADS-B
Sun 04:04:03 AM -45.6650 169.5200 142° Southeast 348 400 10,300 -1,059 Descending FlightAware ADS-B
Sun 04:04:48 AM -45.7200 169.5800 143° Southeast 327 376 9,900 -943 Descending FlightAware ADS-B
Sun 04:05:13 AM -45.7490 169.6130 142° Southeast 323 372 9,200 -1,527 Descending FlightAware ADS-B
Sun 04:05:43 AM -45.7870 169.6540 143° Southeast 324 373 8,500 -1,418 Descending FlightAware ADS-B
Sun 04:06:08 AM -45.8130 169.6830 142° Southeast 323 372 7,900 -1,418 Descending FlightAware ADS-B
Sun 04:06:38 AM -45.8490 169.7230 142° Southeast 311 358 7,200 -831 Descending FlightAware ADS-B
Sun 04:07:13 AM -45.8860 169.7630 143° Southeast 312 359 7,000 -720 Descending FlightAware ADS-B
Sun 04:08:18 AM -45.9540 169.8390 142° Southeast 271 312 6,000 -667 Descending FlightAware ADS-B
Sun 04:08:43 AM -45.9780 169.8660 142° Southeast 271 312 6,000 -1,200 Level FlightAware ADS-B
Sun 04:09:13 AM -46.0090 169.8970 145° Southeast 265 305 4,900 -1,200 Descending FlightAware ADS-B
Sun 04:09:38 AM -46.0330 169.9200 146° Southeast 265 305 4,900 -1,418 Level FlightAware ADS-B
Sun 04:10:08 AM -46.0400 169.9690 102° East 226 260 3,600 -2,250 Descending FlightAware ADS-B
Sun 04:10:18 AM -46.0340 169.9810 54° Northeast 211 243 3,400 -343 Descending FlightAware ADS-B
Sun 04:10:43 AM -46.0200 170.0050 50° Northeast 211 243 3,400  Level FlightAware ADS-B
Sun 04:13:00 AM -45.9281 170.1983 56° Northeast  Level Estimated
Sun 04:14:00 AM -45.9281 170.1983 23° Northeast  Level Estimated
Sun 04:15:00 AM -45.9281 170.1983 157° South  Level Estimated
Sun 04:16:00 AM -45.9281 170.1983 157° South  Level Estimated
Sun 04:17:00 AM -45.9281 170.1983 157° South  Level Estimated
Sun 04:18:00 AM -45.9281 170.1983 157° South  Level Estimated
Sun 04:19:00 AM -45.9281 170.1983 157° South  Level Estimated
Sun 04:20:00 AM -45.9281 170.1983 157° South  Level Estimated
Sun 04:21:00 AM -45.9281 170.1983 157° South  Level Estimated
Sun 04:22:00 AM -45.9281 170.1983 157° South  Level Estimated
Sun 04:23:00 AM -45.9281 170.1983 157° South  Level Estimated
Sun 04:24:00 AM -45.9281 170.1983 157° South  Level Estimated
Sun 04:25:00 AM -45.9281 170.1983 157° South  Level Estimated
Sun 04:26:00 AM -45.9281 170.1983 157° South  Level Estimated
Sun 04:27:00 AM -45.9281 170.1983 157° South  Level Estimated
Sun 04:28:00 AM -45.9281 170.1983 157° South  Level Estimated
Sun 04:29:00 AM -45.9281 170.1983 157° South  Level Estimated
Sun 04:30:00 AM -45.9281 170.1983 157° South  Level Estimated
Sun 04:31:00 AM -45.9281 170.1983 157° South  Level Estimated
Sun 04:32:00 AM -45.9281 170.1983 157° South  Level Estimated
Sun 04:33:00 AM -45.9281 170.1983 157° South  Level Estimated
Sun 04:34:00 AM -45.9281 170.1983 157° South  Level Estimated
Sun 04:35:00 AM -45.9281 170.1983 157° South  Level Estimated
Sun 04:36:00 AM -45.9281 170.1983 157° South  Level Estimated
Sun 04:37:00 AM -45.9281 170.1983 157° South  Level Estimated
Sun 04:38:00 AM -45.9281 170.1983 157° South  Level Estimated

Login

Don't have an account? Register now (free) for customized features, flight alerts, and more!